Terminal Aerodrome Forecast
Issued by NWS

Home | Current Version | Previous Version | Text Only | Print | Product List | Glossary On
Versions: 1 2 3 4 5 6 7 8 9 10 11 12 13 14 15 16 17 18 19 20 21
000
FTUS43 KOAX 210641 AAA
TAFCDR
TAF AMD
KCDR 210641Z 2107/2206 16011KT P6SM VCSH BKN100
      TEMPO 2107/2110 VRB25G35KT 6SM -TSRA BKN070CB
     FM211000 24006KT P6SM BKN150
     FM211600 33013G20KT P6SM SCT150=

USA.gov is the U.S. government's official web portal to all federal, state and local government web resources and services.